createdAt,value
2018-12-19T00:00:39.537Z,31.90
2018-12-19T00:01:39.437Z,30.70
2018-12-19T00:02:39.350Z,30.80
2018-12-19T00:03:39.262Z,31.00
2018-12-19T00:04:39.174Z,31.30
2018-12-19T00:05:39.100Z,31.50
2018-12-19T00:06:39.000Z,31.30
2018-12-19T00:07:38.912Z,31.50
2018-12-19T00:08:38.837Z,28.90
2018-12-19T00:09:38.741Z,30.60
2018-12-19T00:10:38.649Z,30.50
2018-12-19T00:11:38.566Z,29.50
2018-12-19T00:12:38.475Z,30.60
2018-12-19T00:13:38.390Z,29.10
2018-12-19T00:14:38.301Z,31.00
2018-12-19T00:15:38.213Z,31.20
2018-12-19T00:16:38.126Z,30.80
2018-12-19T00:17:38.039Z,31.10
2018-12-19T00:18:37.951Z,31.70
2018-12-19T00:19:37.864Z,31.00
2018-12-19T00:20:37.789Z,30.80
2018-12-19T00:21:37.689Z,31.70
2018-12-19T00:22:37.601Z,32.00
2018-12-19T00:23:37.516Z,30.30
2018-12-19T00:24:37.426Z,31.60
2018-12-19T00:25:37.340Z,31.40
2018-12-19T00:26:37.266Z,31.20
2018-12-19T00:27:37.166Z,33.20
2018-12-19T00:28:37.079Z,32.10
2018-12-19T00:29:36.991Z,31.20
2018-12-19T00:30:36.903Z,32.50
2018-12-19T00:31:36.819Z,32.60
2018-12-19T00:32:36.728Z,32.30
2018-12-19T00:33:36.640Z,29.60
2018-12-19T00:34:36.553Z,34.10
2018-12-19T00:35:36.466Z,32.90
2018-12-19T00:36:36.379Z,32.60
2018-12-19T00:37:36.291Z,32.50
2018-12-19T00:38:36.215Z,32.30
2018-12-19T00:39:36.116Z,32.30
2018-12-19T00:40:36.030Z,32.70
2018-12-19T00:41:35.930Z,32.80
2018-12-19T00:42:35.853Z,32.00
2018-12-19T00:43:35.754Z,31.80
2018-12-19T00:44:35.666Z,32.60
2018-12-19T00:45:35.584Z,31.40
2018-12-19T00:46:35.495Z,32.70
2018-12-19T00:47:35.403Z,30.80
2018-12-19T00:48:35.317Z,31.80
2018-12-19T00:49:35.229Z,31.20
2018-12-19T00:50:35.142Z,30.60
2018-12-19T00:51:35.067Z,31.80
2018-12-19T00:52:34.967Z,31.60
2018-12-19T00:53:34.879Z,30.80
2018-12-19T00:54:34.796Z,32.30
2018-12-19T00:55:34.704Z,31.50
2018-12-19T00:56:34.619Z,30.70
2018-12-19T00:57:34.532Z,30.80
2018-12-19T00:58:34.443Z,31.30
2018-12-19T00:59:34.358Z,31.90
2018-12-19T01:00:34.268Z,31.70
2018-12-19T01:01:34.181Z,32.40
2018-12-19T01:02:34.098Z,31.40
2018-12-19T01:03:34.005Z,31.60
2018-12-19T01:04:33.919Z,31.70
2018-12-19T01:05:33.831Z,31.10
2018-12-19T01:06:33.752Z,30.50
2018-12-19T01:07:33.656Z,30.80
2018-12-19T01:08:33.569Z,31.00
2018-12-19T01:09:33.481Z,31.80
2018-12-19T01:10:33.395Z,30.90
2018-12-19T01:11:33.306Z,31.10
2018-12-19T01:12:33.221Z,30.00
2018-12-19T01:13:33.131Z,30.10
2018-12-19T01:14:33.048Z,30.60
2018-12-19T01:15:32.957Z,29.60
2018-12-19T01:16:32.870Z,30.30
2018-12-19T01:17:32.796Z,30.90
2018-12-19T01:18:32.694Z,30.20
2018-12-19T01:19:32.607Z,30.50
2018-12-19T01:20:32.509Z,29.60
2018-12-19T01:21:32.421Z,31.70
2018-12-19T01:22:32.333Z,30.30
2018-12-19T01:23:32.246Z,31.20
2018-12-19T01:24:32.159Z,30.70
2018-12-19T01:25:32.072Z,31.20
2018-12-19T01:26:31.985Z,31.70
2018-12-19T01:27:31.900Z,30.70
2018-12-19T01:28:31.810Z,30.80
2018-12-19T01:29:31.722Z,31.60
2018-12-19T01:30:31.634Z,31.90
2018-12-19T01:31:31.546Z,32.40
2018-12-19T01:32:31.598Z,31.30
2018-12-19T01:33:31.377Z,31.40
2018-12-19T01:34:31.284Z,31.50
2018-12-19T01:35:31.198Z,32.10
2018-12-19T01:36:31.109Z,31.30
2018-12-19T01:37:31.023Z,32.80
2018-12-19T01:38:30.935Z,32.20
2018-12-19T01:39:30.848Z,32.40
2018-12-19T01:40:30.764Z,32.00
2018-12-19T01:41:30.673Z,32.90
2018-12-19T01:42:30.585Z,32.70
2018-12-19T01:43:30.502Z,33.10
2018-12-19T01:44:30.410Z,32.10
2018-12-19T01:45:30.323Z,32.50
2018-12-19T01:46:30.236Z,32.80
2018-12-19T01:47:30.150Z,32.50
2018-12-19T01:48:30.061Z,32.40
2018-12-19T01:49:29.975Z,31.70
2018-12-19T01:50:29.886Z,32.70
2018-12-19T01:51:29.799Z,31.50
2018-12-19T01:52:29.713Z,32.20
2018-12-19T01:53:29.624Z,31.70
2018-12-19T01:54:29.536Z,32.40
2018-12-19T01:55:29.449Z,32.50
2018-12-19T01:56:29.350Z,31.90
2018-12-19T01:57:29.274Z,31.90
2018-12-19T01:58:29.187Z,31.60
2018-12-19T01:59:29.100Z,31.90
2018-12-19T02:00:29.001Z,32.40
2018-12-19T02:01:28.911Z,31.80
2018-12-19T02:02:28.825Z,32.80
2018-12-19T02:03:28.737Z,30.80
2018-12-19T02:04:28.650Z,31.50
2018-12-19T02:05:28.562Z,30.70
2018-12-19T02:06:28.476Z,31.50
2018-12-19T02:07:28.388Z,31.90
2018-12-19T02:08:28.301Z,30.30
2018-12-19T02:09:29.078Z,30.80
2018-12-19T02:10:28.126Z,30.80
2018-12-19T02:11:28.038Z,31.70
2018-12-19T02:12:27.956Z,31.10
2018-12-19T02:13:27.863Z,32.10
2018-12-19T02:14:27.778Z,31.30
2018-12-19T02:15:27.688Z,30.90
2018-12-19T02:16:27.602Z,32.30
2018-12-19T02:17:27.514Z,31.60
2018-12-19T02:18:27.426Z,30.90
2018-12-19T02:19:27.339Z,29.70
2018-12-19T02:20:27.253Z,30.10
2018-12-19T02:21:27.164Z,29.80
2018-12-19T02:22:27.077Z,30.30
2018-12-19T02:23:26.989Z,29.60
2018-12-19T02:24:26.902Z,30.80
2018-12-19T02:25:26.817Z,30.30
2018-12-19T02:26:26.727Z,29.40
2018-12-19T02:27:26.688Z,29.60
2018-12-19T02:28:26.541Z,29.60
2018-12-19T02:29:26.480Z,28.10
2018-12-19T02:30:26.369Z,29.40
2018-12-19T02:31:26.279Z,28.40
2018-12-19T02:32:26.198Z,29.60
2018-12-19T02:33:26.103Z,28.40
2018-12-19T02:34:26.015Z,29.90
2018-12-19T02:35:25.929Z,29.40
2018-12-19T02:36:25.853Z,28.70
2018-12-19T02:37:25.755Z,29.40
2018-12-19T02:38:25.665Z,30.40
2018-12-19T02:39:25.579Z,29.10
2018-12-19T02:40:25.491Z,29.10
2018-12-19T02:41:25.405Z,29.60
2018-12-19T02:42:25.329Z,29.00
2018-12-19T02:43:25.230Z,29.50
2018-12-19T02:44:25.143Z,28.70
2018-12-19T02:45:25.056Z,28.40
2018-12-19T02:46:24.966Z,29.10
2018-12-19T02:47:24.879Z,28.60
2018-12-19T02:48:24.791Z,28.70
2018-12-19T02:49:24.705Z,29.70
2018-12-19T02:50:24.617Z,29.30
2018-12-19T02:51:24.531Z,28.50
2018-12-19T02:52:24.445Z,30.00
2018-12-19T02:53:24.356Z,28.80
2018-12-19T02:54:24.271Z,30.10
2018-12-19T02:55:24.182Z,29.30
2018-12-19T02:56:24.096Z,29.10
2018-12-19T02:57:24.004Z,28.60
2018-12-19T02:58:23.917Z,29.90
2018-12-19T02:59:23.831Z,29.90
2018-12-19T03:00:23.731Z,30.30
2018-12-19T03:01:23.656Z,29.90
2018-12-19T03:02:23.557Z,29.10
2018-12-19T03:03:23.469Z,29.80
2018-12-19T03:04:23.381Z,29.60
2018-12-19T03:05:23.292Z,30.00
2018-12-19T03:06:23.223Z,29.50
2018-12-19T03:07:23.130Z,29.50
2018-12-19T03:08:23.032Z,30.00
2018-12-19T03:09:22.955Z,29.20
2018-12-19T03:10:22.873Z,30.30
2018-12-19T03:11:22.768Z,29.40
2018-12-19T03:12:22.683Z,30.00
2018-12-19T03:13:22.594Z,29.30
2018-12-19T03:14:22.508Z,30.00
2018-12-19T03:15:22.421Z,28.10
2018-12-19T03:16:22.333Z,29.60
2018-12-19T03:17:22.249Z,29.50
2018-12-19T03:18:22.167Z,29.70
2018-12-19T03:19:22.075Z,29.00
2018-12-19T03:20:21.982Z,29.90
2018-12-19T03:21:21.894Z,30.10
2018-12-19T03:22:21.808Z,29.90
2018-12-19T03:23:21.719Z,28.20
2018-12-19T03:24:21.639Z,29.80
2018-12-19T03:25:21.545Z,29.40
2018-12-19T03:26:21.502Z,28.90
2018-12-19T03:27:21.372Z,29.20
2018-12-19T03:28:21.284Z,29.00
2018-12-19T03:29:21.195Z,29.60
2018-12-19T03:30:21.110Z,29.90
2018-12-19T03:31:21.022Z,28.90
2018-12-19T03:32:20.922Z,28.40
2018-12-19T03:33:20.839Z,29.80
2018-12-19T03:34:20.748Z,29.80
2018-12-19T03:35:20.664Z,29.30
2018-12-19T03:36:20.572Z,28.90
2018-12-19T03:37:20.486Z,28.80
2018-12-19T03:38:20.409Z,29.00
2018-12-19T03:39:20.309Z,28.70
2018-12-19T03:40:20.227Z,29.60
2018-12-19T03:41:20.137Z,28.80
2018-12-19T03:42:20.048Z,29.10
2018-12-19T03:43:19.961Z,28.90
2018-12-19T03:44:19.872Z,29.50
2018-12-19T03:45:19.789Z,29.40
2018-12-19T03:46:19.698Z,28.70
2018-12-19T03:47:19.610Z,28.00
2018-12-19T03:48:19.523Z,28.90
2018-12-19T03:49:19.436Z,28.80
2018-12-19T03:50:19.347Z,28.20
2018-12-19T03:51:19.260Z,29.20
2018-12-19T03:52:19.174Z,30.00
2018-12-19T03:53:19.087Z,29.30
2018-12-19T03:54:19.003Z,30.10
2018-12-19T03:55:18.912Z,30.70
2018-12-19T03:56:18.836Z,29.10
2018-12-19T03:57:18.736Z,28.30
2018-12-19T03:58:18.639Z,28.90
2018-12-19T03:59:18.550Z,28.90
2018-12-19T04:00:18.464Z,28.50
2018-12-19T04:01:18.375Z,28.40
2018-12-19T04:02:18.299Z,28.40
2018-12-19T04:03:18.199Z,29.10
2018-12-19T04:04:18.113Z,29.10
2018-12-19T04:05:18.037Z,28.80
2018-12-19T04:06:17.946Z,28.50
2018-12-19T04:07:17.849Z,27.90
2018-12-19T04:08:17.763Z,28.10
2018-12-19T04:09:17.678Z,28.30
2018-12-19T04:10:17.588Z,28.80
2018-12-19T04:11:17.501Z,29.20
2018-12-19T04:12:17.414Z,28.30
2018-12-19T04:13:17.338Z,28.10
2018-12-19T04:14:17.239Z,27.40
2018-12-19T04:15:17.152Z,28.00
2018-12-19T04:16:17.064Z,28.90
2018-12-19T04:17:16.976Z,27.90
2018-12-19T04:18:16.890Z,27.40
2018-12-19T04:19:16.802Z,28.40
2018-12-19T04:20:16.715Z,27.60
2018-12-19T04:21:16.627Z,27.50
2018-12-19T04:22:16.529Z,26.50
2018-12-19T04:23:16.441Z,26.90
2018-12-19T04:24:16.353Z,27.60
2018-12-19T04:25:16.265Z,27.80
2018-12-19T04:26:16.192Z,27.60
2018-12-19T04:27:16.091Z,27.70
2018-12-19T04:28:16.002Z,27.70
2018-12-19T04:29:15.926Z,26.80
2018-12-19T04:30:15.842Z,27.50
2018-12-19T04:31:15.741Z,26.80
2018-12-19T04:32:15.654Z,25.90
2018-12-19T04:33:15.566Z,26.00
2018-12-19T04:34:15.491Z,26.40
2018-12-19T04:35:15.393Z,27.10
2018-12-19T04:36:15.303Z,26.90
2018-12-19T04:37:15.224Z,25.10
2018-12-19T04:38:15.129Z,26.50
2018-12-19T04:39:15.047Z,26.10
2018-12-19T04:40:14.954Z,23.40
2018-12-19T04:41:14.869Z,26.40
2018-12-19T04:42:14.780Z,25.90
2018-12-19T04:43:14.698Z,25.40
2018-12-19T04:44:14.604Z,26.20
2018-12-19T04:45:14.506Z,25.00
2018-12-19T04:46:14.419Z,25.90
2018-12-19T04:47:14.332Z,25.40
2018-12-19T04:48:14.244Z,24.70
2018-12-19T04:49:14.155Z,26.00
2018-12-19T04:50:14.068Z,25.30
2018-12-19T04:51:13.993Z,22.70
2018-12-19T04:52:13.893Z,24.80
2018-12-19T04:53:14.630Z,25.50
2018-12-19T04:54:13.724Z,24.50
2018-12-19T04:55:13.631Z,25.20
2018-12-19T04:56:13.544Z,25.30
2018-12-19T04:57:13.458Z,25.00
2018-12-19T04:58:13.369Z,22.30
2018-12-19T04:59:13.282Z,24.80
2018-12-19T05:00:13.196Z,24.90
2018-12-19T05:01:13.122Z,24.60
2018-12-19T05:02:13.020Z,24.60
2018-12-19T05:03:12.935Z,24.20
2018-12-19T05:04:12.845Z,23.50
2018-12-19T05:05:12.757Z,24.60
2018-12-19T05:06:12.670Z,23.50
2018-12-19T05:07:12.582Z,24.00
2018-12-19T05:08:12.485Z,23.50
2018-12-19T05:09:12.395Z,23.80
2018-12-19T05:10:12.572Z,23.20
2018-12-19T05:11:12.222Z,23.80
2018-12-19T05:12:12.133Z,23.70
2018-12-19T05:13:12.046Z,23.60
2018-12-19T05:14:11.971Z,23.10
2018-12-19T05:15:11.871Z,23.70
2018-12-19T05:16:11.783Z,20.60
2018-12-19T05:17:11.700Z,22.20
2018-12-19T05:18:11.609Z,23.20
2018-12-19T05:19:11.522Z,22.80
2018-12-19T05:20:11.433Z,22.70
2018-12-19T05:21:11.347Z,23.10
2018-12-19T05:22:11.259Z,23.10
2018-12-19T05:23:11.177Z,22.60
2018-12-19T05:24:11.084Z,21.30
2018-12-19T05:25:10.998Z,22.40
2018-12-19T05:26:10.910Z,22.20
2018-12-19T05:27:10.823Z,22.60
2018-12-19T05:28:10.734Z,22.30
2018-12-19T05:29:10.648Z,22.70
2018-12-19T05:30:10.562Z,22.00
2018-12-19T05:31:10.475Z,22.50
2018-12-19T05:32:10.399Z,22.60
2018-12-19T05:33:10.298Z,22.10
2018-12-19T05:34:10.199Z,22.70
2018-12-19T05:35:10.112Z,23.50
2018-12-19T05:36:10.024Z,21.40
2018-12-19T05:37:09.936Z,22.20
2018-12-19T05:38:09.860Z,22.50
2018-12-19T05:39:09.803Z,22.40
2018-12-19T05:40:09.925Z,21.90
2018-12-19T05:41:09.599Z,21.70
2018-12-19T05:42:09.564Z,23.20
2018-12-19T05:43:09.417Z,22.00
2018-12-19T05:44:09.324Z,19.40
2018-12-19T05:45:09.237Z,21.20
2018-12-19T05:46:09.149Z,22.00
2018-12-19T05:47:09.062Z,20.90
2018-12-19T05:48:08.976Z,20.60
2018-12-19T05:49:08.900Z,21.40
2018-12-19T05:50:08.800Z,20.10
2018-12-19T05:51:08.713Z,21.50
2018-12-19T05:52:08.625Z,21.70
2018-12-19T05:53:08.537Z,21.30
2018-12-19T05:54:08.452Z,21.00
2018-12-19T05:55:08.363Z,20.00
2018-12-19T05:56:08.276Z,19.80
2018-12-19T05:57:08.201Z,21.30
2018-12-19T05:58:08.102Z,19.30
2018-12-19T05:59:08.013Z,19.20
2018-12-19T06:00:08.227Z,19.60
2018-12-19T06:01:07.839Z,21.70
2018-12-19T06:02:07.752Z,20.30
2018-12-19T06:03:07.663Z,20.70
2018-12-19T06:04:07.566Z,19.20
2018-12-19T06:05:07.478Z,20.10
2018-12-19T06:06:07.401Z,21.00
2018-12-19T06:07:07.302Z,20.00
2018-12-19T06:08:07.214Z,20.80
2018-12-19T06:09:07.128Z,20.10
2018-12-19T06:10:07.039Z,20.70
2018-12-19T06:11:06.964Z,18.40
2018-12-19T06:12:06.864Z,19.90
2018-12-19T06:13:06.777Z,20.40
2018-12-19T06:14:06.691Z,20.30
2018-12-19T06:15:06.604Z,20.10
2018-12-19T06:16:06.515Z,18.80
2018-12-19T06:17:06.427Z,19.60
2018-12-19T06:18:06.340Z,20.30
2018-12-19T06:19:06.253Z,19.90
2018-12-19T06:20:06.165Z,20.20
2018-12-19T06:21:06.083Z,18.10
2018-12-19T06:22:05.995Z,19.50
2018-12-19T06:23:05.905Z,19.40
2018-12-19T06:24:05.815Z,19.30
2018-12-19T06:25:05.729Z,19.70
2018-12-19T06:26:05.641Z,19.30
2018-12-19T06:27:05.554Z,19.40
2018-12-19T06:28:05.467Z,19.20
2018-12-19T06:29:05.379Z,19.10
2018-12-19T06:30:05.291Z,18.60
2018-12-19T06:31:05.205Z,19.70
2018-12-19T06:32:05.116Z,19.10
2018-12-19T06:33:05.030Z,19.20
2018-12-19T06:34:04.942Z,18.90
2018-12-19T06:35:04.854Z,18.90
2018-12-19T06:36:04.767Z,19.80
2018-12-19T06:37:04.681Z,19.90
2018-12-19T06:38:04.607Z,18.90
2018-12-19T06:39:04.505Z,19.20
2018-12-19T06:40:04.417Z,19.40
2018-12-19T06:41:04.330Z,19.50
2018-12-19T06:42:04.244Z,19.80
2018-12-19T06:43:04.156Z,18.10
2018-12-19T06:44:04.081Z,19.40
2018-12-19T06:45:03.982Z,19.30
2018-12-19T06:46:03.893Z,19.20
2018-12-19T06:47:03.806Z,17.80
2018-12-19T06:48:03.707Z,18.70
2018-12-19T06:49:03.619Z,17.80
2018-12-19T06:50:03.781Z,17.40
2018-12-19T06:51:03.444Z,19.30
2018-12-19T06:52:03.357Z,18.30
2018-12-19T06:53:03.269Z,18.70
2018-12-19T06:54:03.182Z,18.50
2018-12-19T06:55:03.094Z,18.70
2018-12-19T06:56:03.007Z,19.50
2018-12-19T06:57:02.918Z,19.00
2018-12-19T06:58:02.833Z,19.30
2018-12-19T06:59:02.744Z,19.50
2018-12-19T07:00:02.669Z,18.30
2018-12-19T07:01:02.569Z,18.20
2018-12-19T07:02:02.484Z,19.20
2018-12-19T07:03:02.413Z,19.90
2018-12-19T07:04:02.308Z,18.80
2018-12-19T07:05:02.219Z,19.40
2018-12-19T07:06:02.134Z,19.30
2018-12-19T07:07:02.052Z,18.50
2018-12-19T07:08:01.960Z,18.80
2018-12-19T07:09:01.870Z,18.80
2018-12-19T07:10:01.792Z,18.70
2018-12-19T07:11:01.695Z,19.00
2018-12-19T07:12:01.609Z,19.00
2018-12-19T07:13:01.521Z,19.30
2018-12-19T07:14:01.451Z,18.10
2018-12-19T07:15:01.371Z,18.10
2018-12-19T07:16:01.263Z,17.50
2018-12-19T07:17:01.170Z,18.10
2018-12-19T07:18:01.096Z,19.40
2018-12-19T07:19:00.996Z,18.30
2018-12-19T07:20:00.909Z,19.60
2018-12-19T07:21:00.822Z,18.40
2018-12-19T07:22:00.741Z,17.20
2018-12-19T07:23:00.650Z,19.00
2018-12-19T07:24:00.561Z,18.10
2018-12-19T07:25:00.472Z,18.20
2018-12-19T07:26:00.386Z,18.70
2018-12-19T07:27:00.297Z,18.20
2018-12-19T07:28:00.213Z,18.30
2018-12-19T07:29:00.122Z,17.70
2018-12-19T07:30:00.037Z,17.80
2018-12-19T07:30:59.948Z,17.00
2018-12-19T07:31:59.851Z,17.80
2018-12-19T07:32:59.761Z,18.00
2018-12-19T07:33:59.685Z,18.40
2018-12-19T07:34:59.587Z,18.40
2018-12-19T07:35:59.498Z,17.40
2018-12-19T07:36:59.412Z,17.40
2018-12-19T07:37:59.323Z,17.40
2018-12-19T07:38:59.261Z,18.70
2018-12-19T07:39:59.148Z,17.70
2018-12-19T07:40:59.064Z,17.80
2018-12-19T07:41:58.987Z,17.20
2018-12-19T07:42:58.887Z,17.10
2018-12-19T07:43:58.799Z,17.60
2018-12-19T07:44:58.713Z,17.90
2018-12-19T07:45:58.624Z,16.50
2018-12-19T07:46:58.551Z,17.40
2018-12-19T07:47:58.450Z,17.80
2018-12-19T07:48:58.364Z,17.80
2018-12-19T07:49:58.287Z,17.10
2018-12-19T07:50:58.188Z,18.80
2018-12-19T07:51:58.099Z,15.90
2018-12-19T07:52:58.013Z,17.00
2018-12-19T07:53:57.925Z,17.80
2018-12-19T07:54:57.838Z,17.80
2018-12-19T07:55:57.750Z,18.40
2018-12-19T07:56:57.663Z,17.60
2018-12-19T07:57:57.588Z,17.70
2018-12-19T07:58:57.489Z,16.70
2018-12-19T07:59:57.403Z,17.20
2018-12-19T08:00:57.314Z,18.00
2018-12-19T08:01:57.228Z,17.10
2018-12-19T08:02:57.139Z,17.30
2018-12-19T08:03:57.051Z,17.10
2018-12-19T08:04:56.964Z,17.50
2018-12-19T08:05:56.879Z,17.00
2018-12-19T08:06:56.792Z,15.80
2018-12-19T08:07:56.701Z,17.30
2018-12-19T08:08:56.614Z,16.70
2018-12-19T08:09:56.541Z,16.90
2018-12-19T08:10:56.440Z,17.10
2018-12-19T08:11:56.352Z,16.40
2018-12-19T08:12:56.268Z,16.60
2018-12-19T08:13:56.177Z,17.70
2018-12-19T08:14:56.089Z,17.40
2018-12-19T08:15:56.001Z,17.70
2018-12-19T08:16:55.917Z,17.60
2018-12-19T08:17:55.828Z,17.00
2018-12-19T08:18:55.740Z,17.80
2018-12-19T08:19:55.657Z,17.00
2018-12-19T08:20:55.571Z,16.70
2018-12-19T08:21:55.477Z,16.90
2018-12-19T08:22:55.392Z,16.50
2018-12-19T08:23:55.302Z,16.20
2018-12-19T08:24:55.215Z,17.70
2018-12-19T08:25:55.128Z,17.80
2018-12-19T08:26:55.041Z,17.30
2018-12-19T08:27:54.954Z,16.40
2018-12-19T08:28:54.867Z,16.20
2018-12-19T08:29:54.780Z,16.10
2018-12-19T08:30:54.692Z,16.40
2018-12-19T08:31:54.603Z,17.20
2018-12-19T08:32:54.517Z,17.10
2018-12-19T08:33:54.432Z,16.50
2018-12-19T08:34:54.342Z,16.40
2018-12-19T08:35:54.254Z,16.40
2018-12-19T08:36:54.169Z,15.90
2018-12-19T08:37:54.093Z,14.50
2018-12-19T08:38:53.993Z,16.70
2018-12-19T08:39:53.905Z,17.00
2018-12-19T08:40:58.707Z,15.80
2018-12-19T08:41:53.788Z,16.20
2018-12-19T08:42:53.643Z,16.70
2018-12-19T08:43:53.555Z,16.30
2018-12-19T08:44:53.470Z,16.00
2018-12-19T08:45:53.381Z,16.60
2018-12-19T08:46:53.293Z,15.90
2018-12-19T08:47:53.206Z,16.20
2018-12-19T08:48:53.118Z,16.30
2018-12-19T08:49:53.044Z,15.90
2018-12-19T08:50:52.944Z,16.10
2018-12-19T08:51:52.856Z,16.50
2018-12-19T08:52:52.772Z,16.80
2018-12-19T08:53:52.681Z,16.10
2018-12-19T08:54:52.595Z,16.10
2018-12-19T08:55:52.506Z,16.80
2018-12-19T08:56:52.422Z,15.90
2018-12-19T08:57:52.345Z,16.80
2018-12-19T08:58:52.246Z,15.90
2018-12-19T08:59:52.159Z,16.30
2018-12-19T09:00:52.076Z,16.00
2018-12-19T09:01:51.982Z,16.10
2018-12-19T09:02:51.896Z,16.50
2018-12-19T09:03:51.807Z,16.80
2018-12-19T09:04:51.721Z,15.60
2018-12-19T09:05:51.647Z,15.80
2018-12-19T09:06:51.547Z,14.80
2018-12-19T09:07:51.458Z,16.50
2018-12-19T09:08:51.373Z,17.20
2018-12-19T09:09:51.284Z,16.40
2018-12-19T09:10:51.199Z,16.00
2018-12-19T09:11:51.110Z,15.20
2018-12-19T09:12:51.033Z,15.90
2018-12-19T09:13:50.946Z,15.80
2018-12-19T09:14:50.859Z,15.50
2018-12-19T09:15:50.773Z,16.10
2018-12-19T09:16:50.686Z,13.90
2018-12-19T09:17:50.598Z,16.30
2018-12-19T09:18:50.509Z,15.50
2018-12-19T09:19:50.423Z,16.10
2018-12-19T09:20:50.334Z,16.90
2018-12-19T09:21:50.247Z,16.10
2018-12-19T09:22:50.159Z,15.90
2018-12-19T09:23:50.072Z,15.60
2018-12-19T09:24:49.989Z,15.90
2018-12-19T09:25:49.898Z,16.20
2018-12-19T09:26:49.812Z,16.80
2018-12-19T09:27:49.722Z,15.40
2018-12-19T09:28:49.634Z,15.50
2018-12-19T09:29:49.551Z,16.00
2018-12-19T09:30:49.460Z,15.40
2018-12-19T09:31:49.373Z,15.50
2018-12-19T09:32:49.286Z,15.20
2018-12-19T09:33:49.198Z,16.20
2018-12-19T09:34:49.110Z,15.60
2018-12-19T09:35:49.023Z,15.80
2018-12-19T09:36:48.938Z,15.30
2018-12-19T09:37:48.848Z,14.60
2018-12-19T09:38:48.761Z,15.30
2018-12-19T09:39:48.674Z,16.00
2018-12-19T09:40:48.585Z,15.30
2018-12-19T09:41:48.498Z,15.50
2018-12-19T09:42:48.411Z,15.80
2018-12-19T09:43:48.325Z,14.80
2018-12-19T09:44:48.249Z,14.40
2018-12-19T09:45:48.149Z,15.50
2018-12-19T09:46:48.063Z,15.50
2018-12-19T09:47:47.983Z,14.90
2018-12-19T09:48:47.889Z,16.20
2018-12-19T09:49:47.811Z,15.40
2018-12-19T09:50:47.725Z,15.30
2018-12-19T09:51:47.638Z,15.00
2018-12-19T09:52:47.550Z,14.70
2018-12-19T09:53:47.462Z,14.60
2018-12-19T09:54:47.376Z,14.30
2018-12-19T09:55:47.287Z,13.70
2018-12-19T09:56:47.200Z,14.70
2018-12-19T09:57:47.113Z,14.80
2018-12-19T09:58:47.025Z,15.10
2018-12-19T09:59:46.951Z,14.80
2018-12-19T10:00:46.852Z,14.50
2018-12-19T10:01:46.775Z,14.80
2018-12-19T10:02:46.678Z,14.30
2018-12-19T10:03:46.588Z,15.60
2018-12-19T10:04:46.501Z,15.00
2018-12-19T10:05:46.413Z,14.60
2018-12-19T10:06:46.326Z,14.90
2018-12-19T10:07:46.239Z,14.50
2018-12-19T10:08:46.152Z,14.50
2018-12-19T10:09:46.063Z,14.40
2018-12-19T10:10:45.978Z,15.30
2018-12-19T10:11:45.889Z,13.80
2018-12-19T10:12:45.802Z,15.30
2018-12-19T10:13:45.727Z,14.10
2018-12-19T10:14:45.639Z,15.20
2018-12-19T10:15:45.557Z,13.70
2018-12-19T10:16:45.464Z,14.80
2018-12-19T10:17:45.378Z,14.40
2018-12-19T10:18:45.289Z,14.30
2018-12-19T10:19:45.204Z,14.10
2018-12-19T10:20:45.117Z,14.80
2018-12-19T10:21:45.028Z,14.40
2018-12-19T10:22:44.940Z,14.60
2018-12-19T10:23:44.854Z,14.00
2018-12-19T10:24:44.768Z,15.10
2018-12-19T10:25:44.678Z,15.20
2018-12-19T10:26:44.590Z,14.20
2018-12-19T10:27:44.503Z,14.40
2018-12-19T10:28:44.416Z,14.70
2018-12-19T10:29:44.329Z,14.80
2018-12-19T10:30:44.254Z,15.10
2018-12-19T10:31:44.154Z,15.00
2018-12-19T10:32:44.068Z,15.30
2018-12-19T10:33:43.991Z,14.80
2018-12-19T10:34:43.905Z,15.40
2018-12-19T10:35:43.816Z,14.90
2018-12-19T10:36:43.729Z,14.10
2018-12-19T10:37:43.654Z,14.90
2018-12-19T10:38:43.554Z,15.60
2018-12-19T10:39:43.467Z,14.10
2018-12-19T10:40:43.379Z,14.60
2018-12-19T10:41:43.292Z,14.30
2018-12-19T10:42:43.205Z,14.80
2018-12-19T10:43:43.117Z,14.60
2018-12-19T10:44:43.036Z,14.30
2018-12-19T10:45:42.943Z,14.60
2018-12-19T10:46:42.856Z,14.60
2018-12-19T10:47:42.774Z,15.00
2018-12-19T10:48:42.694Z,14.90
2018-12-19T10:49:42.606Z,14.00
2018-12-19T10:50:42.517Z,15.40
2018-12-19T10:51:42.437Z,14.30
2018-12-19T10:52:42.353Z,13.50
2018-12-19T10:53:42.257Z,13.30
2018-12-19T10:54:42.168Z,14.00
2018-12-19T10:55:42.081Z,13.10
2018-12-19T10:56:42.007Z,14.40
2018-12-19T10:57:41.908Z,14.40
2018-12-19T10:58:41.820Z,13.30
2018-12-19T10:59:41.734Z,14.30
2018-12-19T11:00:41.645Z,13.70
2018-12-19T11:01:41.561Z,14.10
2018-12-19T11:02:41.485Z,14.00
2018-12-19T11:03:41.396Z,14.00
2018-12-19T11:04:41.308Z,13.40
2018-12-19T11:05:41.220Z,13.70
2018-12-19T11:06:41.137Z,13.40
2018-12-19T11:07:41.045Z,14.00
2018-12-19T11:08:40.958Z,13.30
2018-12-19T11:09:40.870Z,13.80
2018-12-19T11:10:40.783Z,13.90
2018-12-19T11:11:40.697Z,13.80
2018-12-19T11:12:40.609Z,13.10
2018-12-19T11:13:40.521Z,12.80
2018-12-19T11:14:40.446Z,13.50
2018-12-19T11:15:40.349Z,13.60
2018-12-19T11:16:40.271Z,14.20
2018-12-19T11:17:40.185Z,13.70
2018-12-19T11:18:40.096Z,12.50
2018-12-19T11:19:40.010Z,13.70
2018-12-19T11:20:39.938Z,13.20
2018-12-19T11:21:39.835Z,13.10
2018-12-19T11:22:39.748Z,13.80
2018-12-19T11:23:39.660Z,13.10
2018-12-19T11:24:39.571Z,13.60
2018-12-19T11:25:39.497Z,13.40
2018-12-19T11:26:39.410Z,13.60
2018-12-19T11:27:39.322Z,14.00
2018-12-19T11:28:39.235Z,13.40
2018-12-19T11:29:39.147Z,12.30
2018-12-19T11:30:39.061Z,13.40
2018-12-19T11:31:38.973Z,13.70
2018-12-19T11:32:38.887Z,14.00
2018-12-19T11:33:38.798Z,13.40
2018-12-19T11:34:38.711Z,13.30
2018-12-19T11:35:38.624Z,12.90
2018-12-19T11:36:38.548Z,13.50
2018-12-19T11:37:38.463Z,13.70
2018-12-19T11:38:38.387Z,13.40
2018-12-19T11:39:38.287Z,13.30
2018-12-19T11:40:38.198Z,13.30
2018-12-19T11:41:39.217Z,13.50
2018-12-19T11:42:38.027Z,13.80
2018-12-19T11:43:37.940Z,13.80
2018-12-19T11:44:37.850Z,13.80
2018-12-19T11:45:37.763Z,14.00
2018-12-19T11:46:37.675Z,14.10
2018-12-19T11:47:37.588Z,13.80
2018-12-19T11:48:37.514Z,13.00
2018-12-19T11:49:37.427Z,12.90
2018-12-19T11:50:37.339Z,13.20
2018-12-19T11:51:37.250Z,13.30
2018-12-19T11:52:37.170Z,13.80
2018-12-19T11:53:37.075Z,13.40
2018-12-19T11:54:36.989Z,13.80
2018-12-19T11:55:36.914Z,13.90
2018-12-19T11:56:36.814Z,13.50
2018-12-19T11:57:36.726Z,12.90
2018-12-19T11:58:36.650Z,13.00
2018-12-19T11:59:36.564Z,13.60
2018-12-19T12:00:36.476Z,12.80
2018-12-19T12:01:41.301Z,13.40
2018-12-19T12:02:36.333Z,13.60
2018-12-19T12:03:36.215Z,13.70
2018-12-19T12:04:36.127Z,13.50
2018-12-19T12:05:36.040Z,13.40
2018-12-19T12:06:35.951Z,13.30
2018-12-19T12:07:35.866Z,13.40
2018-12-19T12:08:35.777Z,13.80
2018-12-19T12:09:35.704Z,13.10
2018-12-19T12:10:36.848Z,13.30
2018-12-19T12:11:35.526Z,13.20
2018-12-19T12:12:35.441Z,14.30
2018-12-19T12:13:35.353Z,13.50
2018-12-19T12:14:35.266Z,13.90
2018-12-19T12:15:35.179Z,14.00
2018-12-19T12:16:35.091Z,13.60
2018-12-19T12:17:35.003Z,13.10
2018-12-19T12:18:34.917Z,14.00
2018-12-19T12:19:34.831Z,14.00
2018-12-19T12:20:34.753Z,13.20
2018-12-19T12:21:34.667Z,12.90
2018-12-19T12:22:34.578Z,13.10
2018-12-19T12:23:34.492Z,12.60
2018-12-19T12:24:34.416Z,13.70
2018-12-19T12:25:34.318Z,12.80
2018-12-19T12:26:34.229Z,13.90
2018-12-19T12:27:34.141Z,13.40
2018-12-19T12:28:34.056Z,13.00
2018-12-19T12:29:33.979Z,13.80
2018-12-19T12:30:33.892Z,13.80
2018-12-19T12:31:33.817Z,13.80
2018-12-19T12:32:33.718Z,13.20
2018-12-19T12:33:33.630Z,13.40
2018-12-19T12:34:33.544Z,13.80
2018-12-19T12:35:33.456Z,13.20
2018-12-19T12:36:33.369Z,13.70
2018-12-19T12:37:33.283Z,13.50
2018-12-19T12:38:34.211Z,13.10
2018-12-19T12:39:33.119Z,13.10
2018-12-19T12:40:33.031Z,13.10
2018-12-19T12:41:32.945Z,13.10
2018-12-19T12:42:32.869Z,13.90
2018-12-19T12:43:32.769Z,12.50
2018-12-19T12:44:32.683Z,13.40
2018-12-19T12:45:32.598Z,13.60
2018-12-19T12:46:32.521Z,13.60
2018-12-19T12:47:32.432Z,12.70
2018-12-19T12:48:32.346Z,13.10
2018-12-19T12:49:32.273Z,13.50
2018-12-19T12:50:32.171Z,13.20
2018-12-19T12:51:32.086Z,13.50